Time;durP1;ratioP1;P1;durP2;ratioP2;P2;SDS_P1;SDS_P2;PMS_P1;PMS_P2;Temp;Humidity;BMP_temperature;BMP_pressure;BME280_temperature;BME280_humidity;BME280_pressure;Samples;Min_cycle;Max_cycle;Signal;HPM_P1;HPM_P2
2021/08/17 00:01:44;;;;;;;29.52;20.20;;;20.30;73.40;;;;;;4244763;27;20112;-71
2021/08/17 00:03:48;;;;;;;35.47;20.90;;;20.30;73.30;;;;;;4263078;27;20565;-73
2021/08/17 00:05:52;;;;;;;37.28;21.88;;;20.30;73.60;;;;;;4263117;27;20620;-69
2021/08/17 00:07:55;;;;;;;36.70;21.55;;;20.30;74.80;;;;;;4262683;27;20414;-69
2021/08/17 00:09:58;;;;;;;33.78;19.50;;;20.10;75.10;;;;;;4244676;27;20059;-69
2021/08/17 00:12:01;;;;;;;36.10;22.77;;;20.10;73.80;;;;;;4262885;27;20115;-70
2021/08/17 00:14:04;;;;;;;44.17;22.25;;;20.20;75.40;;;;;;4262679;27;20111;-69
2021/08/17 00:16:09;;;;;;;35.85;22.00;;;20.10;74.90;;;;;;4244245;27;20652;-71
2021/08/17 00:18:12;;;;;;;29.95;20.40;;;20.20;74.40;;;;;;4263128;27;20059;-72
2021/08/17 00:20:15;;;;;;;34.50;20.55;;;20.10;75.20;;;;;;4263004;27;20051;-70
2021/08/17 00:22:22;;;;;;;30.50;21.35;;;20.00;75.30;;;;;;4262841;27;20487;-71
2021/08/17 00:24:25;;;;;;;35.20;21.40;;;20.00;75.30;;;;;;4262965;27;20551;-71
2021/08/17 00:26:28;;;;;;;37.30;21.02;;;20.00;74.80;;;;;;4262823;27;20051;-70
2021/08/17 00:28:31;;;;;;;34.10;20.20;;;19.90;76.90;;;;;;4244186;27;20511;-74
2021/08/17 00:30:34;;;;;;;32.75;19.35;;;19.90;76.40;;;;;;4264226;27;20062;-72
2021/08/17 00:32:38;;;;;;;33.83;18.88;;;19.90;75.30;;;;;;4266132;27;20115;-75
2021/08/17 00:34:41;;;;;;;29.98;20.52;;;19.90;75.30;;;;;;4265873;27;20050;-72
2021/08/17 00:36:45;;;;;;;39.20;19.95;;;20.00;75.30;;;;;;4265853;27;20483;-74
2021/08/17 00:38:49;;;;;;;36.25;20.25;;;19.90;75.50;;;;;;4266077;27;20111;-75
2021/08/17 00:40:52;;;;;;;35.08;19.35;;;20.00;75.20;;;;;;4265781;27;20099;-73
2021/08/17 00:42:55;;;;;;;32.45;20.17;;;20.00;75.70;;;;;;4265605;27;20624;-71
2021/08/17 00:45:02;;;;;;;31.70;20.30;;;19.90;75.90;;;;;;4247731;27;20058;-73
2021/08/17 00:47:05;;;;;;;31.02;20.25;;;19.90;76.00;;;;;;4265925;27;20118;-71
2021/08/17 00:49:09;;;;;;;31.17;19.48;;;20.00;75.10;;;;;;4265981;27;20092;-72
2021/08/17 00:51:12;;;;;;;29.00;19.13;;;20.00;75.20;;;;;;4265946;27;20115;-75
2021/08/17 00:53:15;;;;;;;31.35;19.58;;;20.00;76.20;;;;;;4265900;27;20050;-75
2021/08/17 00:55:18;;;;;;;36.78;20.02;;;20.00;75.70;;;;;;4265349;27;20055;-74
2021/08/17 00:57:21;;;;;;;29.67;19.27;;;19.90;76.50;;;;;;4265600;27;20379;-71
2021/08/17 00:59:25;;;;;;;30.58;19.25;;;19.90;77.00;;;;;;4265576;27;20051;-74
2021/08/17 01:01:28;;;;;;;33.40;19.15;;;19.80;76.20;;;;;;4265595;27;20058;-71
2021/08/17 01:03:31;;;;;;;31.40;18.33;;;19.80;76.10;;;;;;4265649;27;20066;-72
2021/08/17 01:05:36;;;;;;;30.35;18.92;;;19.80;76.20;;;;;;4265400;27;20111;-72
2021/08/17 01:07:39;;;;;;;31.73;17.92;;;19.90;76.20;;;;;;4265447;27;20119;-73
2021/08/17 01:09:43;;;;;;;28.92;18.17;;;19.90;75.80;;;;;;4265237;27;20055;-75
2021/08/17 01:11:48;;;;;;;27.38;17.45;;;19.80;75.70;;;;;;4265514;27;20050;-71
2021/08/17 01:13:51;;;;;;;;;;;19.80;76.00;;;;;;4266117;27;20443;-70
2021/08/17 01:15:54;;;;;;;28.85;18.20;;;19.90;76.20;;;;;;4265455;27;19919;-70
2021/08/17 01:17:57;;;;;;;36.72;17.45;;;19.80;76.40;;;;;;4265389;27;20054;-70
2021/08/17 01:20:00;;;;;;;32.55;18.00;;;19.80;76.50;;;;;;4265188;27;20058;-71
2021/08/17 01:22:05;;;;;;;32.35;17.23;;;19.80;76.50;;;;;;4265420;27;20071;-70
2021/08/17 01:24:09;;;;;;;32.92;17.40;;;19.70;76.80;;;;;;4265442;27;20103;-72
2021/08/17 01:26:14;;;;;;;31.58;15.73;;;19.70;77.10;;;;;;4265059;27;20059;-72
2021/08/17 01:28:17;;;;;;;28.83;16.52;;;19.70;77.30;;;;;;4265234;27;20120;-74
2021/08/17 01:30:20;;;;;;;33.90;18.13;;;19.70;77.00;;;;;;4265325;27;20050;-73
2021/08/17 01:32:23;;;;;;;31.73;17.33;;;19.60;77.60;;;;;;4265110;27;20050;-74
2021/08/17 01:34:25;;;;;;;29.83;17.35;;;19.70;77.50;;;;;;4265084;27;20420;-72
2021/08/17 01:36:28;;;;;;;31.83;17.08;;;19.60;78.20;;;;;;4264885;27;20135;-71
2021/08/17 01:38:31;;;;;;;26.60;15.10;;;19.60;77.90;;;;;;4264885;27;20051;-71
2021/08/17 01:40:34;;;;;;;32.55;17.48;;;19.60;78.00;;;;;;4265176;27;20107;-71
2021/08/17 01:42:42;;;;;;;31.48;16.15;;;19.60;78.20;;;;;;4264790;27;20047;-72
2021/08/17 01:44:45;;;;;;;33.40;15.45;;;19.60;78.60;;;;;;4264961;27;20059;-74
2021/08/17 01:46:48;;;;;;;32.70;14.90;;;19.50;77.70;;;;;;4265413;27;20046;-70
2021/08/17 01:48:51;;;;;;;29.15;17.08;;;19.60;77.80;;;;;;4265073;27;20465;-72
2021/08/17 01:50:54;;;;;;;35.50;16.77;;;19.60;79.20;;;;;;4265112;27;20479;-74
2021/08/17 01:52:57;;;;;;;30.70;16.30;;;19.50;78.90;;;;;;4264871;27;20127;-72
2021/08/17 01:55:02;;;;;;;30.13;15.40;;;19.50;78.60;;;;;;4264485;27;20051;-74
2021/08/17 01:57:05;;;;;;;32.13;15.23;;;19.50;78.70;;;;;;4264792;27;20135;-74
2021/08/17 01:59:12;;;;;;;30.38;16.05;;;19.50;78.10;;;;;;4264788;27;20062;-71
2021/08/17 02:01:16;;;;;;;31.60;16.25;;;19.50;79.40;;;;;;4264602;27;20050;-74
2021/08/17 02:03:19;;;;;;;33.15;15.88;;;19.50;78.70;;;;;;4264558;27;20115;-75
2021/08/17 02:05:24;;;;;;;29.70;15.52;;;19.50;79.00;;;;;;4264378;27;20709;-74
2021/08/17 02:07:27;;;;;;;32.22;16.38;;;19.40;80.30;;;;;;4264733;27;20047;-74
2021/08/17 02:09:31;;;;;;;27.05;16.10;;;19.40;80.20;;;;;;4264534;27;20055;-72
2021/08/17 02:11:34;;;;;;;23.58;15.05;;;19.30;79.60;;;;;;4264421;27;20055;-73
2021/08/17 02:13:37;;;;;;;29.60;14.65;;;19.30;79.70;;;;;;4264466;27;20099;-72
2021/08/17 02:15:41;;;;;;;26.30;14.10;;;19.30;79.80;;;;;;4264503;27;20051;-71
2021/08/17 02:17:44;;;;;;;26.25;14.23;;;19.30;80.40;;;;;;4264595;27;20084;-71
2021/08/17 02:19:47;;;;;;;26.60;14.38;;;19.30;80.20;;;;;;4264585;27;20114;-74
2021/08/17 02:21:50;;;;;;;26.10;14.35;;;19.30;80.10;;;;;;4264594;27;20055;-74
2021/08/17 02:23:53;;;;;;;30.15;15.25;;;19.20;81.80;;;;;;4264288;27;20059;-74
2021/08/17 02:25:56;;;;;;;27.10;15.20;;;19.20;81.80;;;;;;4264280;27;20099;-74
2021/08/17 02:27:59;;;;;;;28.48;14.57;;;19.10;80.90;;;;;;4264241;27;20391;-74
2021/08/17 02:30:04;;;;;;;24.52;13.57;;;19.20;81.40;;;;;;4264142;27;20059;-75
2021/08/17 02:32:08;;;;;;;35.97;14.40;;;19.20;79.90;;;;;;4264270;27;20119;-71
2021/08/17 02:34:11;;;;;;;27.98;14.30;;;19.20;80.20;;;;;;4245675;27;20043;-72
2021/08/17 02:36:14;;;;;;;25.33;13.30;;;19.20;81.20;;;;;;4264138;27;20441;-74
2021/08/17 02:38:17;;;;;;;25.13;12.82;;;19.20;80.10;;;;;;4264139;27;20058;-74
2021/08/17 02:40:20;;;;;;;29.85;13.68;;;19.20;80.10;;;;;;4264076;27;20050;-74
2021/08/17 02:42:23;;;;;;;24.45;14.02;;;19.20;80.50;;;;;;4263781;27;20507;-73
2021/08/17 02:44:26;;;;;;;29.45;14.13;;;19.20;80.20;;;;;;4264121;27;20084;-74
2021/08/17 02:46:29;;;;;;;28.00;13.43;;;19.20;80.90;;;;;;4263699;27;20058;-71
2021/08/17 02:48:33;;;;;;;25.65;14.15;;;19.20;80.60;;;;;;4263626;27;20089;-74
2021/08/17 02:50:36;;;;;;;26.65;13.25;;;19.10;81.00;;;;;;4245338;27;20495;-70
2021/08/17 02:52:39;;;;;;;24.25;12.77;;;19.10;80.40;;;;;;4263601;27;20107;-74
2021/08/17 02:54:42;;;;;;;28.77;14.15;;;19.10;80.80;;;;;;4263454;27;20094;-73
2021/08/17 02:56:45;;;;;;;27.48;14.38;;;19.10;80.70;;;;;;4263774;27;20051;-71
2021/08/17 02:58:48;;;;;;;31.58;15.25;;;19.00;80.50;;;;;;4263819;27;20054;-73
2021/08/17 03:00:51;;;;;;;29.35;14.98;;;19.10;80.80;;;;;;4245261;27;20059;-70
2021/08/17 03:02:54;;;;;;;25.52;14.68;;;19.10;80.40;;;;;;4263568;27;20046;-69
2021/08/17 03:04:59;;;;;;;30.20;15.20;;;19.10;81.40;;;;;;4263757;27;20103;-73
2021/08/17 03:07:02;;;;;;;24.95;14.07;;;19.10;81.40;;;;;;4263917;27;20054;-72
2021/08/17 03:09:05;;;;;;;22.23;13.25;;;18.90;82.30;;;;;;4263431;27;20095;-73
2021/08/17 03:11:08;;;;;;;28.15;14.77;;;18.90;82.10;;;;;;4244722;27;20404;-69
2021/08/17 03:13:11;;;;;;;24.65;14.10;;;18.90;82.00;;;;;;4263700;27;20645;-71
2021/08/17 03:15:15;;;;;;;27.08;13.63;;;18.90;81.50;;;;;;4244996;27;20148;-73
2021/08/17 03:17:19;;;;;;;27.58;14.20;;;18.80;82.10;;;;;;4263402;27;20061;-74
2021/08/17 03:19:22;;;;;;;27.83;14.13;;;18.80;82.10;;;;;;4244847;27;20551;-73
2021/08/17 03:21:26;;;;;;;26.42;14.30;;;18.90;82.10;;;;;;4263355;27;20562;-74
2021/08/17 03:23:29;;;;;;;28.30;14.40;;;18.80;83.60;;;;;;4263434;27;20460;-72
2021/08/17 03:25:33;;;;;;;30.88;14.90;;;18.80;82.40;;;;;;4263169;27;20464;-74
2021/08/17 03:27:36;;;;;;;23.63;13.48;;;18.80;82.20;;;;;;4263330;27;20047;-74
2021/08/17 03:29:39;;;;;;;24.77;13.75;;;18.90;81.80;;;;;;4244511;27;20055;-71
2021/08/17 03:31:42;;;;;;;24.92;13.27;;;18.80;82.10;;;;;;4245249;27;20051;-71
2021/08/17 03:33:45;;;;;;;26.02;13.93;;;18.90;81.80;;;;;;4263295;27;20054;-72
2021/08/17 03:35:48;;;;;;;29.80;14.05;;;18.90;81.40;;;;;;4263175;27;20051;-71
2021/08/17 03:37:53;;;;;;;24.45;14.23;;;18.90;81.10;;;;;;4263382;27;20051;-73
2021/08/17 03:39:57;;;;;;;27.08;13.98;;;18.90;82.20;;;;;;4263324;27;20051;-71
2021/08/17 03:42:00;;;;;;;28.30;14.48;;;18.90;81.50;;;;;;4263534;27;20490;-71
2021/08/17 03:44:03;;;;;;;29.70;14.77;;;18.90;81.70;;;;;;4262969;27;20054;-72
2021/08/17 03:46:06;;;;;;;27.08;14.70;;;18.90;81.70;;;;;;4263282;27;20046;-72
2021/08/17 03:48:09;;;;;;;27.30;13.20;;;18.80;82.80;;;;;;4244900;27;20436;-69
2021/08/17 03:50:14;;;;;;;30.92;14.50;;;18.80;83.10;;;;;;4244790;27;20059;-74
2021/08/17 03:52:17;;;;;;;28.35;14.63;;;18.80;82.50;;;;;;4263043;27;20611;-72
2021/08/17 03:54:22;;;;;;;33.13;15.05;;;18.80;82.60;;;;;;4262601;27;20452;-74
2021/08/17 03:56:25;;;;;;;28.13;13.82;;;18.80;82.20;;;;;;4263114;27;20046;-74
2021/08/17 03:58:28;;;;;;;26.38;14.10;;;18.80;82.40;;;;;;4263091;27;20047;-70
2021/08/17 04:00:35;;;;;;;25.00;13.50;;;18.80;81.80;;;;;;4263174;27;20122;-71
2021/08/17 04:02:38;;;;;;;22.40;13.65;;;18.80;82.40;;;;;;4262814;27;20061;-74
2021/08/17 04:04:41;;;;;;;22.55;12.95;;;18.80;81.90;;;;;;4262895;27;20055;-71
2021/08/17 04:06:44;;;;;;;26.30;13.98;;;18.80;81.80;;;;;;4266283;27;20495;-71
2021/08/17 04:08:48;;;;;;;29.55;13.43;;;18.80;81.80;;;;;;4266185;27;20054;-73
2021/08/17 04:10:52;;;;;;;24.75;13.30;;;18.80;81.50;;;;;;4266171;27;20055;-74
2021/08/17 04:12:55;;;;;;;23.50;13.65;;;18.80;81.70;;;;;;4266163;27;20051;-69
2021/08/17 04:14:59;;;;;;;24.38;13.27;;;18.70;81.90;;;;;;4248042;27;20052;-69
2021/08/17 04:17:02;;;;;;;22.08;12.63;;;18.70;82.00;;;;;;4265851;27;20046;-73
2021/08/17 04:19:05;;;;;;;25.58;13.52;;;18.70;82.30;;;;;;4266169;27;20499;-74
2021/08/17 04:21:08;;;;;;;27.73;15.25;;;18.60;82.80;;;;;;4266363;27;20054;-69
2021/08/17 04:23:11;;;;;;;24.10;13.05;;;18.60;82.50;;;;;;4266283;27;20111;-71
2021/08/17 04:25:14;;;;;;;27.25;13.57;;;18.50;83.50;;;;;;4266175;27;20050;-70
2021/08/17 04:27:18;;;;;;;21.63;12.98;;;18.50;83.10;;;;;;4266290;27;20570;-72
2021/08/17 04:29:21;;;;;;;26.10;13.65;;;18.50;83.50;;;;;;4266130;27;20115;-73
2021/08/17 04:31:24;;;;;;;28.35;14.55;;;18.50;82.80;;;;;;4265846;27;20133;-69
2021/08/17 04:33:28;;;;;;;26.58;12.57;;;18.50;84.00;;;;;;4265998;27;20047;-72
2021/08/17 04:35:30;;;;;;;21.05;12.75;;;18.50;83.30;;;;;;4265938;27;20119;-72
2021/08/17 04:37:34;;;;;;;24.48;12.88;;;18.50;83.50;;;;;;4265645;27;20058;-73
2021/08/17 04:39:37;;;;;;;25.13;13.38;;;18.50;82.90;;;;;;4265939;27;20051;-71
2021/08/17 04:41:40;;;;;;;22.45;13.52;;;18.40;84.10;;;;;;4265653;27;20071;-72
2021/08/17 04:43:46;;;;;;;25.65;12.85;;;18.40;83.70;;;;;;4265927;27;20486;-76
2021/08/17 04:45:52;;;;;;;24.10;13.52;;;18.40;83.20;;;;;;4265604;27;20058;-73
2021/08/17 04:47:55;;;;;;;28.90;13.48;;;18.40;83.60;;;;;;4265724;27;20051;-71
2021/08/17 04:49:58;;;;;;;23.90;13.32;;;18.40;83.40;;;;;;4265909;27;20055;-70
2021/08/17 04:52:02;;;;;;;23.77;13.05;;;18.40;83.10;;;;;;4265693;27;20062;-74
2021/08/17 04:54:05;;;;;;;25.10;13.20;;;18.40;83.10;;;;;;4265687;27;20053;-72
2021/08/17 04:56:08;;;;;;;24.15;12.95;;;18.50;83.00;;;;;;4265899;27;20103;-69
2021/08/17 04:58:11;;;;;;;24.58;12.48;;;18.40;83.20;;;;;;4265671;27;20062;-68
2021/08/17 05:00:16;;;;;;;25.95;12.95;;;18.40;83.00;;;;;;4265811;27;20081;-73
2021/08/17 05:02:19;;;;;;;25.80;13.38;;;18.40;83.30;;;;;;4265779;27;20070;-74
2021/08/17 05:04:22;;;;;;;20.30;12.50;;;18.40;83.50;;;;;;4265676;27;20104;-71
2021/08/17 05:06:25;;;;;;;24.77;11.73;;;18.40;83.40;;;;;;4265551;27;20054;-73
2021/08/17 05:08:28;;;;;;;23.85;13.20;;;18.40;82.70;;;;;;4265722;27;20111;-69
2021/08/17 05:10:31;;;;;;;23.08;12.82;;;18.40;82.70;;;;;;4265415;27;20055;-72
2021/08/17 05:12:35;;;;;;;22.13;12.43;;;18.40;82.90;;;;;;4266173;27;20051;-69
2021/08/17 05:14:38;;;;;;;19.80;12.85;;;18.50;82.50;;;;;;4267055;27;20047;-70
2021/08/17 05:16:43;;;;;;;24.05;13.68;;;18.50;82.80;;;;;;4265838;27;20050;-69
2021/08/17 05:18:46;;;;;;;24.90;12.50;;;18.50;82.90;;;;;;4267006;27;20437;-68
2021/08/17 05:20:49;;;;;;;25.63;13.02;;;18.50;82.60;;;;;;4267256;27;20051;-72
2021/08/17 05:22:52;;;;;;;25.20;13.15;;;18.40;83.60;;;;;;4266682;27;20047;-71
2021/08/17 05:24:55;;;;;;;24.33;12.77;;;18.40;84.20;;;;;;4265354;27;20054;-70
2021/08/17 05:26:58;;;;;;;32.05;13.48;;;18.50;84.10;;;;;;4266142;27;20111;-70
2021/08/17 05:29:01;;;;;;;24.48;12.80;;;18.40;84.10;;;;;;4267454;27;20054;-70
2021/08/17 05:31:04;;;;;;;23.52;12.75;;;18.40;83.90;;;;;;4265952;27;20050;-70
2021/08/17 05:33:09;;;;;;;26.10;12.27;;;18.40;84.10;;;;;;4265176;27;20080;-71
2021/08/17 05:35:12;;;;;;;29.52;12.35;;;18.40;83.90;;;;;;4264811;27;20058;-72
2021/08/17 05:37:15;;;;;;;27.27;13.20;;;18.40;83.90;;;;;;4265214;27;20076;-70
2021/08/17 05:39:18;;;;;;;20.20;12.05;;;18.40;83.90;;;;;;4264893;27;20055;-70
2021/08/17 05:41:21;;;;;;;19.48;11.52;;;18.50;83.40;;;;;;4265081;27;20054;-74
2021/08/17 05:43:24;;;;;;;24.77;12.15;;;18.60;83.20;;;;;;4265358;27;20634;-74
2021/08/17 05:45:39;;;;;;;18.90;11.55;;;18.60;83.20;;;;;;4265028;27;20050;-74
2021/08/17 05:47:45;;;;;;;25.92;12.10;;;18.60;82.90;;;;;;4264926;27;20563;-71
2021/08/17 05:49:49;;;;;;;24.45;12.35;;;18.60;83.60;;;;;;4265023;27;20051;-67
2021/08/17 05:51:52;;;;;;;19.33;10.98;;;18.60;83.80;;;;;;4264800;27;20090;-74
2021/08/17 05:53:55;;;;;;;24.23;11.32;;;18.60;82.90;;;;;;4264436;27;20579;-74
2021/08/17 05:55:58;;;;;;;21.77;12.02;;;18.70;83.50;;;;;;4264863;27;20062;-73
2021/08/17 05:58:04;;;;;;;23.70;12.65;;;18.50;84.40;;;;;;4264502;27;20051;-75
2021/08/17 06:00:12;;;;;;;25.73;12.80;;;18.60;84.20;;;;;;4264682;27;20059;-74
2021/08/17 06:02:16;;;;;;;27.55;12.10;;;18.60;84.40;;;;;;4264770;27;20130;-76
2021/08/17 06:04:19;;;;;;;22.30;12.25;;;18.70;84.10;;;;;;4264542;27;20043;-72
2021/08/17 06:06:23;;;;;;;25.95;12.13;;;18.60;85.10;;;;;;4264513;27;20503;-71
2021/08/17 06:08:27;;;;;;;27.60;12.20;;;18.60;84.30;;;;;;4264640;27;20056;-70
2021/08/17 06:10:30;;;;;;;23.08;11.82;;;18.60;85.10;;;;;;4264582;27;20047;-70
2021/08/17 06:12:33;;;;;;;21.60;11.38;;;18.60;85.10;;;;;;4264419;27;20134;-70
2021/08/17 06:14:36;;;;;;;28.15;11.98;;;18.60;84.50;;;;;;4264469;27;20059;-72
2021/08/17 06:16:40;;;;;;;29.17;12.15;;;18.70;84.50;;;;;;4264323;27;20111;-74
2021/08/17 06:18:43;;;;;;;28.92;12.32;;;18.70;84.70;;;;;;4264522;27;20050;-71
2021/08/17 06:20:46;;;;;;;26.45;11.68;;;18.60;85.50;;;;;;4263863;27;20051;-74
2021/08/17 06:22:51;;;;;;;24.23;12.23;;;18.50;86.50;;;;;;4264475;27;20552;-69
2021/08/17 06:24:54;;;;;;;18.98;11.57;;;18.40;87.30;;;;;;4264487;27;20058;-72
2021/08/17 06:26:57;;;;;;;27.92;12.05;;;18.50;86.20;;;;;;4264284;27;20441;-73
2021/08/17 06:29:00;;;;;;;20.63;11.70;;;18.60;86.50;;;;;;4263319;27;20047;-72
2021/08/17 06:31:03;;;;;;;21.88;11.75;;;18.60;86.00;;;;;;4245862;27;20051;-73
2021/08/17 06:33:07;;;;;;;29.45;12.30;;;18.70;85.60;;;;;;4263866;27;20070;-73
2021/08/17 06:35:10;;;;;;;19.73;11.70;;;18.80;84.80;;;;;;4264233;27;20058;-71
2021/08/17 06:37:13;;;;;;;23.63;11.52;;;18.90;84.40;;;;;;4264400;27;20054;-69
2021/08/17 06:39:20;;;;;;;29.67;12.10;;;19.00;85.00;;;;;;4263928;27;20122;-70
2021/08/17 06:41:23;;;;;;;24.35;11.07;;;19.00;84.30;;;;;;4263956;27;20467;-73
2021/08/17 06:43:29;;;;;;;23.20;10.68;;;19.00;84.30;;;;;;4264124;27;20059;-72
2021/08/17 06:45:32;;;;;;;23.25;11.38;;;19.00;84.80;;;;;;4263710;27;20050;-75
2021/08/17 06:47:42;;;;;;;25.50;11.35;;;19.00;84.40;;;;;;4263919;27;20100;-70
2021/08/17 06:49:45;;;;;;;24.90;11.02;;;19.00;84.50;;;;;;4263938;27;20057;-71
2021/08/17 06:51:48;;;;;;;24.67;11.15;;;19.00;85.20;;;;;;4264118;27;20476;-73
2021/08/17 06:53:51;;;;;;;19.70;10.60;;;19.10;84.70;;;;;;4263703;27;20046;-68
2021/08/17 06:55:56;;;;;;;23.55;10.38;;;19.10;84.70;;;;;;4263790;27;20054;-73
2021/08/17 06:57:59;;;;;;;22.88;11.02;;;19.20;84.00;;;;;;4263944;27;20558;-73
2021/08/17 07:00:03;;;;;;;23.45;11.07;;;19.30;84.30;;;;;;4263762;27;20054;-70
2021/08/17 07:02:06;;;;;;;27.20;11.25;;;19.30;84.20;;;;;;4263931;27;20050;-73
2021/08/17 07:04:09;;;;;;;17.50;9.60;;;19.30;84.40;;;;;;4263612;27;20058;-73
2021/08/17 07:06:12;;;;;;;25.38;11.77;;;19.30;83.80;;;;;;4245480;27;20047;-73
2021/08/17 07:08:16;;;;;;;24.73;10.57;;;19.30;84.50;;;;;;4263605;27;20059;-74
2021/08/17 07:10:19;;;;;;;22.48;10.88;;;19.20;84.70;;;;;;4263460;27;20111;-72
2021/08/17 07:12:42;;;;;;;27.70;11.98;;;19.30;84.30;;;;;;4263639;27;20037;-73
2021/08/17 07:14:45;;;;;;;23.45;11.07;;;19.30;84.20;;;;;;4263362;27;20042;-72
2021/08/17 07:16:48;;;;;;;29.73;11.82;;;19.30;84.10;;;;;;4263635;27;20058;-73
2021/08/17 07:18:51;;;;;;;17.88;10.68;;;19.40;83.80;;;;;;4263323;27;20055;-71
2021/08/17 07:20:54;;;;;;;28.23;12.18;;;19.40;83.60;;;;;;4263458;27;20095;-69
2021/08/17 07:22:57;;;;;;;29.30;11.15;;;19.40;84.40;;;;;;4263382;27;20107;-70
2021/08/17 07:25:00;;;;;;;24.00;11.48;;;19.40;84.90;;;;;;4263621;27;20054;-71
2021/08/17 07:27:03;;;;;;;28.65;11.13;;;19.50;85.00;;;;;;4263346;27;20057;-72
2021/08/17 07:29:08;;;;;;;22.92;10.95;;;19.50;84.90;;;;;;4263407;27;20084;-70
2021/08/17 07:31:11;;;;;;;18.70;10.60;;;19.60;84.70;;;;;;4263269;27;20107;-70
2021/08/17 07:33:14;;;;;;;21.13;10.55;;;19.60;84.90;;;;;;4263281;27;20087;-70
2021/08/17 07:35:20;;;;;;;25.02;11.10;;;19.70;84.60;;;;;;4263234;27;20046;-71
2021/08/17 07:37:23;;;;;;;26.48;10.80;;;19.70;85.60;;;;;;4263154;27;20104;-70
2021/08/17 07:39:26;;;;;;;22.10;10.13;;;19.70;84.70;;;;;;4262972;27;20055;-70
2021/08/17 07:41:29;;;;;;;27.13;10.68;;;19.80;84.70;;;;;;4263242;27;20050;-71
2021/08/17 07:43:32;;;;;;;24.85;10.45;;;19.90;84.60;;;;;;4242286;27;20051;-72
2021/08/17 07:45:37;;;;;;;32.42;10.98;;;19.90;84.90;;;;;;4250754;27;20466;-71
2021/08/17 07:48:01;;;;;;;22.42;9.27;;;20.00;84.60;;;;;;4262521;27;20414;-70
2021/08/17 07:50:07;;;;;;;21.95;9.48;;;20.20;84.60;;;;;;4255683;27;20122;-71
2021/08/17 07:52:10;;;;;;;19.23;9.90;;;20.20;85.20;;;;;;4245605;27;20051;-68
2021/08/17 07:54:13;;;;;;;18.85;9.50;;;20.20;85.50;;;;;;4247050;27;20080;-69
2021/08/17 07:56:17;;;;;;;22.52;10.85;;;20.20;85.00;;;;;;4254556;27;20059;-71
2021/08/17 07:58:21;;;;;;;26.88;9.70;;;20.30;84.90;;;;;;4250189;27;20055;-72
2021/08/17 08:00:24;;;;;;;19.27;9.02;;;20.40;85.00;;;;;;4261904;27;20053;-71
2021/08/17 08:02:28;;;;;;;23.70;8.98;;;20.40;85.20;;;;;;4218345;28;20052;-69
2021/08/17 08:04:32;;;;;;;20.35;8.63;;;20.40;84.80;;;;;;4258404;27;20051;-70
2021/08/17 08:06:35;;;;;;;29.88;9.40;;;20.60;84.60;;;;;;4262387;27;20107;-70
2021/08/17 08:08:41;;;;;;;21.98;8.85;;;20.70;84.90;;;;;;4258397;27;20043;-71
2021/08/17 08:10:44;;;;;;;25.23;8.52;;;20.80;84.30;;;;;;4244008;27;20107;-72
2021/08/17 08:12:48;;;;;;;21.15;8.38;;;20.60;84.70;;;;;;4262467;27;20050;-69
2021/08/17 08:14:52;;;;;;;23.77;8.60;;;20.60;84.80;;;;;;4262662;27;20058;-71
2021/08/17 08:16:58;;;;;;;20.73;8.00;;;20.90;84.70;;;;;;4262164;27;20126;-70
2021/08/17 08:19:03;;;;;;;20.15;7.78;;;21.10;84.50;;;;;;4262147;27;20051;-71
2021/08/17 08:21:06;;;;;;;16.33;8.07;;;21.30;83.90;;;;;;4262430;27;20115;-73
2021/08/17 08:23:09;;;;;;;19.27;8.02;;;21.40;83.40;;;;;;4259873;27;20768;-71
2021/08/17 08:25:13;;;;;;;24.48;9.73;;;21.50;83.00;;;;;;4253658;27;20057;-71
2021/08/17 08:27:16;;;;;;;21.88;8.75;;;21.60;82.70;;;;;;4260591;27;20058;-72
2021/08/17 08:29:19;;;;;;;21.95;8.43;;;21.70;82.50;;;;;;4259066;27;20062;-72
2021/08/17 08:31:22;;;;;;;19.17;7.45;;;21.80;82.30;;;;;;4261867;27;20085;-72
2021/08/17 08:33:25;;;;;;;24.00;7.63;;;21.80;82.20;;;;;;4257933;27;20055;-71
2021/08/17 08:35:30;;;;;;;18.95;7.75;;;21.90;82.00;;;;;;4262367;27;20502;-69
2021/08/17 08:37:33;;;;;;;23.80;8.85;;;21.90;82.10;;;;;;4262388;27;20053;-71
2021/08/17 08:39:37;;;;;;;22.33;8.37;;;21.90;81.90;;;;;;4262401;27;20480;-72
2021/08/17 08:41:45;;;;;;;23.08;8.63;;;21.60;81.70;;;;;;4261483;27;20471;-69
2021/08/17 08:43:49;;;;;;;25.92;8.10;;;21.80;82.10;;;;;;4262032;27;20115;-69
2021/08/17 08:45:52;;;;;;;23.33;8.77;;;21.90;81.40;;;;;;4261837;27;20046;-71
2021/08/17 08:47:55;;;;;;;15.68;8.30;;;22.00;81.10;;;;;;4256174;27;20552;-71
2021/08/17 08:50:02;;;;;;;15.10;7.78;;;22.00;80.90;;;;;;4248848;27;20049;-70
2021/08/17 08:52:07;;;;;;;22.13;8.95;;;22.10;80.90;;;;;;4246134;27;20058;-70
2021/08/17 08:54:10;;;;;;;17.95;7.95;;;22.10;81.00;;;;;;4265205;27;20518;-69
2021/08/17 08:56:13;;;;;;;21.92;7.93;;;21.90;81.00;;;;;;4264794;27;20050;-68
2021/08/17 08:58:16;;;;;;;21.00;8.15;;;22.00;81.30;;;;;;4264689;27;20100;-72
2021/08/17 09:00:19;;;;;;;16.80;7.15;;;21.80;81.20;;;;;;4265109;27;20051;-70
2021/08/17 09:02:29;;;;;;;17.20;7.13;;;22.00;81.60;;;;;;4258035;27;20055;-71
2021/08/17 09:04:32;;;;;;;15.88;7.00;;;22.00;81.80;;;;;;4258334;27;20055;-71
2021/08/17 09:06:35;;;;;;;16.45;7.47;;;22.10;81.50;;;;;;4265286;27;20054;-72
2021/08/17 09:08:40;;;;;;;22.90;7.88;;;22.20;80.60;;;;;;4234973;27;20635;-71
2021/08/17 09:10:44;;;;;;;18.85;7.38;;;22.30;80.60;;;;;;4247911;27;20043;-69
2021/08/17 09:12:48;;;;;;;17.15;7.15;;;22.50;80.10;;;;;;4247866;27;20108;-69
2021/08/17 09:15:05;;;;;;;15.20;7.32;;;22.60;79.80;;;;;;4248025;27;20425;-66
2021/08/17 09:17:11;;;;;;;15.73;7.40;;;22.70;79.10;;;;;;4247667;27;20052;-70
2021/08/17 09:19:33;;;;;;;19.08;6.80;;;22.70;79.30;;;;;;4247337;27;20058;-73
2021/08/17 09:21:39;;;;;;;16.95;7.82;;;22.80;79.50;;;;;;4247972;27;20058;-71
2021/08/17 09:23:45;;;;;;;19.80;8.18;;;22.80;79.10;;;;;;4247865;27;20047;-71
2021/08/17 09:25:51;;;;;;;17.45;7.78;;;22.60;79.00;;;;;;4247820;27;20047;-70
2021/08/17 09:28:17;;;;;;;19.13;6.65;;;22.60;79.60;;;;;;4247876;27;20103;-73
2021/08/17 09:30:30;;;;;;;17.02;6.95;;;22.60;79.40;;;;;;4247933;27;20043;-70
2021/08/17 09:32:49;;;;;;;15.18;5.40;;;22.80;78.50;;;;;;4255660;27;20043;-71
2021/08/17 09:34:55;;;;;;;13.70;6.05;;;22.90;77.90;;;;;;4264784;27;20046;-71
2021/08/17 09:37:04;;;;;;;15.43;6.50;;;22.70;77.30;;;;;;4264863;27;20516;-71
2021/08/17 09:39:11;;;;;;;22.88;7.25;;;22.80;77.30;;;;;;4264374;27;20055;-70
2021/08/17 09:41:20;;;;;;;13.80;6.13;;;22.80;77.00;;;;;;4264580;27;20055;-71
2021/08/17 09:43:29;;;;;;;15.25;6.10;;;22.90;77.30;;;;;;4264892;27;20042;-71
2021/08/17 09:45:34;;;;;;;12.98;5.93;;;22.80;76.20;;;;;;4264560;27;20058;-71
2021/08/17 09:47:41;;;;;;;20.63;6.20;;;22.90;76.20;;;;;;4249882;27;20739;-69
2021/08/17 09:49:45;;;;;;;11.25;5.70;;;23.00;75.90;;;;;;4254381;27;20081;-71
2021/08/17 09:51:48;;;;;;;17.52;6.80;;;23.00;75.50;;;;;;4263863;27;20066;-70
2021/08/17 09:54:11;;;;;;;17.65;6.03;;;23.00;75.90;;;;;;4245790;27;20062;-70
2021/08/17 09:56:26;;;;;;;25.20;8.13;;;23.10;76.00;;;;;;4258919;27;20051;-68
2021/08/17 09:58:31;;;;;;;18.80;6.80;;;23.20;76.00;;;;;;4229092;28;20492;-68
2021/08/17 10:00:34;;;;;;;15.60;6.95;;;23.20;76.20;;;;;;4256791;27;20281;-70
2021/08/17 10:02:39;;;;;;;15.40;6.53;;;23.20;75.80;;;;;;4263523;27;20141;-68
2021/08/17 10:04:51;;;;;;;13.20;5.97;;;23.10;76.30;;;;;;4273906;27;20046;-68
2021/08/17 10:06:55;;;;;;;20.05;7.00;;;23.00;76.30;;;;;;4273943;27;20051;-70
2021/08/17 10:09:00;;;;;;;20.15;6.60;;;23.00;76.30;;;;;;4273651;27;20051;-68
2021/08/17 10:11:05;;;;;;;17.80;6.65;;;22.90;75.80;;;;;;4273723;27;20047;-70
2021/08/17 10:13:14;;;;;;;14.38;6.82;;;23.00;75.50;;;;;;4261333;27;20361;-70
2021/08/17 10:15:21;;;;;;;13.68;6.32;;;23.00;75.70;;;;;;4265954;27;20315;-70
2021/08/17 10:17:25;;;;;;;10.02;5.90;;;22.80;76.10;;;;;;4273440;27;20115;-70
2021/08/17 10:19:32;;;;;;;16.00;6.03;;;22.90;74.90;;;;;;4273710;27;20051;-70
2021/08/17 10:21:38;;;;;;;20.60;6.72;;;23.00;74.80;;;;;;4273121;27;20212;-69
2021/08/17 10:23:44;;;;;;;15.43;5.97;;;23.00;75.10;;;;;;4268900;27;20085;-70
2021/08/17 10:25:49;;;;;;;17.65;6.65;;;23.10;75.30;;;;;;4267188;27;20047;-70
2021/08/17 10:27:53;;;;;;;14.45;6.47;;;23.20;74.70;;;;;;4273448;27;20047;-72
2021/08/17 10:30:04;;;;;;;11.95;5.80;;;23.10;75.20;;;;;;4273122;27;20268;-70
2021/08/17 10:32:07;;;;;;;17.40;7.40;;;23.30;74.50;;;;;;4273162;27;20083;-69
2021/08/17 10:34:13;;;;;;;14.20;7.28;;;23.30;74.00;;;;;;4273139;27;20050;-68